Sunday, December 17, 2017, 10:10 PM EST
Back to Local

KIDI, Indiana / Stewart Field

Location: Indiana, PA, United States Lat: 40.633
Local Time: 10:10 PM EST ( 3:10 GMT) Lon: -79.1
Time Zone: US/Eastern Elev: 1407 ft

Show me the last for .
Show Decoded

2017-12-17 21:35 METAR KIDI 180235Z AUTO 00000KT 10SM BKN032 BKN043 OVC065 02/02 A3013 RMK A01 =
2017-12-17 21:15 METAR KIDI 180215Z AUTO 19004KT 6SM BR BKN028 OVC033 02/02 A3013 RMK A01 =
2017-12-17 20:55 METAR KIDI 180155Z AUTO 22004KT 9SM OVC027 02/02 A3015 RMK A01 =
2017-12-17 20:35 METAR KIDI 180135Z AUTO 00000KT 5SM BR SCT026 OVC034 02/02 A3015 RMK A01 =
2017-12-17 20:15 METAR KIDI 180115Z AUTO 00000KT 5SM BR FEW030 OVC037 02/02 A3015 RMK A01 =
2017-12-17 19:55 METAR KIDI 180055Z AUTO 00000KT 6SM BR SCT026 BKN044 OVC050 02/02 A3015 RMK A01
                 =
2017-12-17 19:35 METAR KIDI 180035Z AUTO 23003KT 6SM BR FEW007 BKN024 OVC055 02/02 A3015 RMK A01
                 =
2017-12-17 19:15 METAR KIDI 180015Z AUTO 29003KT 5SM BR BKN023 BKN031 OVC040 02/02 A3016 RMK A01
                 =
2017-12-17 18:55 METAR KIDI 172355Z AUTO 23006KT 6SM BR SCT032 OVC041 02/01 A3015 RMK A01 =
2017-12-17 18:35 METAR KIDI 172335Z AUTO 22008KT 9SM BKN044 OVC050 03/01 A3016 RMK A01 =
2017-12-17 18:15 METAR KIDI 172315Z AUTO 23009KT 10SM OVC049 04/M00 A3016 RMK A01 =
2017-12-17 17:55 METAR KIDI 172255Z AUTO 23005KT 10SM FEW037 SCT048 OVC060 03/M01 A3016 RMK A01 =
2017-12-17 17:35 METAR KIDI 172235Z AUTO 21004KT 10SM SCT060 OVC075 03/M01 A3016 RMK A01 =
2017-12-17 17:15 METAR KIDI 172215Z AUTO 00000KT 10SM FEW050 SCT065 BKN075 03/M01 A3016 RMK A01 =
2017-12-17 16:55 METAR KIDI 172155Z AUTO 00000KT 10SM BKN065 BKN075 OVC090 03/M01 A3016 RMK A01 =
2017-12-17 16:35 METAR KIDI 172135Z AUTO 22004KT 10SM SCT075 OVC090 03/M01 A3017 RMK A01 =
2017-12-17 16:15 METAR KIDI 172115Z AUTO 00000KT 10SM SCT080 BKN100 03/M01 A3017 RMK A01 =
2017-12-17 15:55 METAR KIDI 172055Z AUTO 00000KT 10SM BKN100 04/M01 A3014 RMK A01 =
2017-12-17 15:35 METAR KIDI 172035Z AUTO 22003KT 10SM BKN110 04/M01 A3014 RMK A01 =
2017-12-17 15:15 METAR KIDI 172015Z AUTO 00000KT 10SM SCT120 04/M01 A3014 RMK A01 =
2017-12-17 14:55 METAR KIDI 171955Z AUTO 22003KT 10SM CLR 04/M01 A3014 RMK A01 =
2017-12-17 14:35 METAR KIDI 171935Z AUTO 00000KT 10SM CLR 04/M01 A3013 RMK A01 =
2017-12-17 14:15 METAR KIDI 171915Z AUTO 00000KT 10SM CLR 04/M01 A3014 RMK A01 =
2017-12-17 13:55 METAR KIDI 171855Z AUTO 00000KT 10SM CLR 04/M01 A3015 RMK A01 =
2017-12-17 13:35 METAR KIDI 171835Z AUTO 22003KT 10SM CLR 04/M01 A3017 RMK A01 =
2017-12-17 13:15 METAR KIDI 171815Z AUTO 24005KT 10SM CLR 04/M02 A3018 RMK A01 =
2017-12-17 12:55 METAR KIDI 171755Z AUTO 00000KT 10SM CLR 03/M01 A3018 RMK A01 =
2017-12-17 12:35 METAR KIDI 171735Z AUTO 24005KT 10SM CLR 03/M02 A3020 RMK A01 =
2017-12-17 12:15 METAR KIDI 171715Z AUTO 23004KT 10SM CLR 03/M02 A3020 RMK A01 =
2017-12-17 11:55 METAR KIDI 171655Z AUTO 22003KT 10SM CLR 03/M02 A3021 RMK A01 =
2017-12-17 11:35 METAR KIDI 171635Z AUTO 23003KT 10SM CLR 03/M02 A3023 RMK A01 =
2017-12-17 11:15 METAR KIDI 171615Z AUTO 22004KT 10SM CLR 02/M02 A3024 RMK A01 =
2017-12-17 10:55 METAR KIDI 171555Z AUTO 23006KT 10SM CLR 02/M02 A3026 RMK A01 =
2017-12-17 10:35 METAR KIDI 171535Z AUTO 00000KT 10SM CLR 02/M02 A3025 RMK A01 =
2017-12-17 10:15 METAR KIDI 171515Z AUTO 00000KT 10SM CLR 02/M02 A3025 RMK A01 =
2017-12-17 09:55 METAR KIDI 171455Z AUTO 00000KT 10SM CLR 01/M02 A3025 RMK A01 =
2017-12-17 09:35 METAR KIDI 171435Z AUTO 00000KT 10SM CLR 01/M02 A3024 RMK A01 =
2017-12-17 09:15 METAR KIDI 171415Z AUTO 00000KT 10SM CLR 00/M03 A3023 RMK A01 =
2017-12-17 08:55 METAR KIDI 171355Z AUTO 23004KT 10SM CLR M02/M03 A3023 RMK A01 =
2017-12-17 08:35 METAR KIDI 171335Z AUTO 00000KT 10SM CLR M03/M04 A3022 RMK A01 =
2017-12-17 08:15 METAR KIDI 171315Z AUTO 00000KT 10SM CLR M04/M04 A3022 RMK A01 =
2017-12-17 07:55 METAR KIDI 171255Z AUTO 00000KT 9SM CLR M05/M05 A3022 RMK A01 =
2017-12-17 07:35 METAR KIDI 171235Z AUTO 00000KT 10SM FEW060 M05/M05 A3023 RMK A01 =
2017-12-17 07:15 METAR KIDI 171215Z AUTO 00000KT 10SM FEW044 BKN060 M05/M05 A3023 RMK A01 =
2017-12-17 06:55 METAR KIDI 171155Z AUTO 00000KT 10SM OVC060 M06/M06 A3023 RMK A01 =
2017-12-17 06:35 METAR KIDI 171135Z AUTO 00000KT 10SM OVC060 M04/M05 A3022 RMK A01 =
2017-12-17 06:15 METAR KIDI 171115Z AUTO 00000KT 10SM OVC060 M05/M05 A3021 RMK A01 =
2017-12-17 05:55 METAR KIDI 171055Z AUTO 00000KT 10SM FEW043 OVC060 M05/M06 A3020 RMK A01 =
2017-12-17 05:35 METAR KIDI 171035Z AUTO 00000KT 10SM BKN044 BKN060 M05/M06 A3020 RMK A01 =
2017-12-17 05:15 METAR KIDI 171015Z AUTO 00000KT 10SM SCT045 SCT060 M05/M05 A3020 RMK A01 =
2017-12-17 04:55 METAR KIDI 170955Z AUTO 00000KT 10SM SCT046 SCT060 M05/M06 A3019 RMK A01 =
2017-12-17 04:35 METAR KIDI 170935Z AUTO 00000KT 9SM SCT046 M04/M05 A3019 RMK A01 =
2017-12-17 04:15 METAR KIDI 170915Z AUTO 00000KT 10SM FEW047 M04/M05 A3019 RMK A01 =
2017-12-17 03:55 METAR KIDI 170855Z AUTO 00000KT 10SM FEW043 FEW050 M04/M05 A3019 RMK A01 =
2017-12-17 03:35 METAR KIDI 170835Z AUTO 00000KT 9SM FEW045 M05/M05 A3019 RMK A01 =
2017-12-17 03:15 METAR KIDI 170815Z AUTO 00000KT 8SM FEW047 M05/M06 A3019 RMK A01 =
2017-12-17 02:55 METAR KIDI 170755Z AUTO 00000KT 9SM FEW046 FEW050 M06/M06 A3020 RMK A01 =
2017-12-17 02:35 METAR KIDI 170735Z AUTO 00000KT 9SM CLR M05/M06 A3020 RMK A01 =
2017-12-17 02:15 METAR KIDI 170715Z AUTO 00000KT 10SM CLR M05/M06 A3020 RMK A01 =
2017-12-17 01:55 METAR KIDI 170655Z AUTO 00000KT 9SM CLR M06/M07 A3020 RMK A01 =
2017-12-17 01:35 METAR KIDI 170635Z AUTO 00000KT 10SM FEW044 FEW050 M06/M06 A3018 RMK A01 =
2017-12-17 01:15 METAR KIDI 170615Z AUTO 00000KT 10SM SCT048 SCT060 M06/M07 A3017 RMK A01 =
2017-12-17 00:55 METAR KIDI 170555Z AUTO 00000KT 10SM SCT048 SCT055 M06/M07 A3017 RMK A01 =
2017-12-17 00:35 METAR KIDI 170535Z AUTO 00000KT 9SM BKN048 BKN055 M06/M07 A3017 RMK A01 =
2017-12-17 00:15 METAR KIDI 170515Z AUTO 00000KT 6SM BR BKN048 M06/M07 A3017 RMK A01 =
2017-12-16 23:55 METAR KIDI 170455Z AUTO 00000KT 6SM BR BKN048 M06/M06 A3017 RMK A01 =
2017-12-16 23:35 METAR KIDI 170435Z AUTO 00000KT 7SM BKN049 M06/M07 A3017 RMK A01 =
2017-12-16 23:15 METAR KIDI 170415Z AUTO 00000KT 8SM BKN049 M06/M06 A3016 RMK A01 =
2017-12-16 22:55 METAR KIDI 170355Z AUTO 00000KT 8SM BKN047 BKN060 M06/M06 A3017 RMK A01 =
2017-12-16 22:35 METAR KIDI 170335Z AUTO 00000KT 8SM OVC048 M05/M06 A3016 RMK A01 =
2017-12-16 22:15 METAR KIDI 170315Z AUTO 00000KT 8SM OVC048 M05/M06 A3016 RMK A01 =

Support USWX by starting your Amazon purchase here.